sensor_id;sensor_type;location;lat;lon;timestamp;temperature;humidity
74822;DHT22;63353;48.702;8.884;2023-02-01T00:01:38;1.70;99.90
74822;DHT22;63353;48.702;8.884;2023-02-01T00:04:22;1.70;99.90
74822;DHT22;63353;48.702;8.884;2023-02-01T00:06:48;1.70;99.90
74822;DHT22;63353;48.702;8.884;2023-02-01T00:09:14;1.70;99.90
74822;DHT22;63353;48.702;8.884;2023-02-01T00:11:40;1.60;99.90
74822;DHT22;63353;48.702;8.884;2023-02-01T00:14:06;1.70;99.90
74822;DHT22;63353;48.702;8.884;2023-02-01T00:16:33;1.60;99.90
74822;DHT22;63353;48.702;8.884;2023-02-01T00:19:05;1.60;99.90
74822;DHT22;63353;48.702;8.884;2023-02-01T00:21:40;1.70;99.90
74822;DHT22;63353;48.702;8.884;2023-02-01T00:24:10;1.80;99.90
74822;DHT22;63353;48.702;8.884;2023-02-01T00:26:38;1.70;99.90
74822;DHT22;63353;48.702;8.884;2023-02-01T00:29:07;1.60;99.90
74822;DHT22;63353;48.702;8.884;2023-02-01T00:31:34;1.70;99.90
74822;DHT22;63353;48.702;8.884;2023-02-01T00:34:03;1.70;99.90
74822;DHT22;63353;48.702;8.884;2023-02-01T00:36:28;1.50;99.90
74822;DHT22;63353;48.702;8.884;2023-02-01T00:38:55;1.50;99.90
74822;DHT22;63353;48.702;8.884;2023-02-01T00:41:32;1.60;99.90
74822;DHT22;63353;48.702;8.884;2023-02-01T00:44:07;1.60;99.90
74822;DHT22;63353;48.702;8.884;2023-02-01T00:46:32;1.50;99.90
74822;DHT22;63353;48.702;8.884;2023-02-01T00:49:07;1.50;99.90
74822;DHT22;63353;48.702;8.884;2023-02-01T00:51:34;1.50;99.90
74822;DHT22;63353;48.702;8.884;2023-02-01T00:54:03;1.50;99.90
74822;DHT22;63353;48.702;8.884;2023-02-01T00:56:30;1.60;99.90
74822;DHT22;63353;48.702;8.884;2023-02-01T00:58:58;1.60;99.90
74822;DHT22;63353;48.702;8.884;2023-02-01T01:01:33;1.60;99.90
74822;DHT22;63353;48.702;8.884;2023-02-01T01:04:02;1.50;99.90
74822;DHT22;63353;48.702;8.884;2023-02-01T01:06:29;1.60;99.90
74822;DHT22;63353;48.702;8.884;2023-02-01T01:08:56;1.60;99.90
74822;DHT22;63353;48.702;8.884;2023-02-01T01:11:25;1.60;99.90
74822;DHT22;63353;48.702;8.884;2023-02-01T01:13:56;1.50;99.90
74822;DHT22;63353;48.702;8.884;2023-02-01T01:16:23;1.60;99.90
74822;DHT22;63353;48.702;8.884;2023-02-01T01:18:55;1.60;99.90
74822;DHT22;63353;48.702;8.884;2023-02-01T01:21:21;1.50;99.90
74822;DHT22;63353;48.702;8.884;2023-02-01T01:23:47;1.50;99.90
74822;DHT22;63353;48.702;8.884;2023-02-01T01:26:15;1.40;99.90
74822;DHT22;63353;48.702;8.884;2023-02-01T01:28:41;1.40;99.90
74822;DHT22;63353;48.702;8.884;2023-02-01T01:31:18;1.50;99.90
74822;DHT22;63353;48.702;8.884;2023-02-01T01:33:52;1.50;99.90
74822;DHT22;63353;48.702;8.884;2023-02-01T01:36:18;1.50;99.90
74822;DHT22;63353;48.702;8.884;2023-02-01T01:38:44;1.60;99.90
74822;DHT22;63353;48.702;8.884;2023-02-01T01:41:21;1.60;99.90
74822;DHT22;63353;48.702;8.884;2023-02-01T01:43:59;1.50;99.90
74822;DHT22;63353;48.702;8.884;2023-02-01T01:46:38;1.70;99.90
74822;DHT22;63353;48.702;8.884;2023-02-01T01:49:10;1.60;99.90
74822;DHT22;63353;48.702;8.884;2023-02-01T01:51:57;1.60;99.90
74822;DHT22;63353;48.702;8.884;2023-02-01T01:54:41;1.70;99.90
74822;DHT22;63353;48.702;8.884;2023-02-01T01:57:32;1.60;99.90
74822;DHT22;63353;48.702;8.884;2023-02-01T02:00:22;1.50;99.90
74822;DHT22;63353;48.702;8.884;2023-02-01T02:02:53;1.50;99.90
74822;DHT22;63353;48.702;8.884;2023-02-01T02:05:20;1.50;99.90
74822;DHT22;63353;48.702;8.884;2023-02-01T02:07:48;1.50;99.90
74822;DHT22;63353;48.702;8.884;2023-02-01T02:10:15;1.60;99.90
74822;DHT22;63353;48.702;8.884;2023-02-01T02:12:45;1.60;99.90
74822;DHT22;63353;48.702;8.884;2023-02-01T02:15:14;1.60;99.90
74822;DHT22;63353;48.702;8.884;2023-02-01T02:35:50;1.60;99.90
74822;DHT22;63353;48.702;8.884;2023-02-01T02:41:42;1.60;99.90
74822;DHT22;63353;48.702;8.884;2023-02-01T02:50:42;1.60;99.90
74822;DHT22;63353;48.702;8.884;2023-02-01T02:53:48;1.60;99.90
74822;DHT22;63353;48.702;8.884;2023-02-01T02:56:37;1.60;99.90
74822;DHT22;63353;48.702;8.884;2023-02-01T02:59:24;1.60;99.90
74822;DHT22;63353;48.702;8.884;2023-02-01T03:02:16;1.70;99.90
74822;DHT22;63353;48.702;8.884;2023-02-01T03:05:04;1.70;99.90
74822;DHT22;63353;48.702;8.884;2023-02-01T03:10:47;1.70;99.90
74822;DHT22;63353;48.702;8.884;2023-02-01T03:13:35;1.70;99.90
74822;DHT22;63353;48.702;8.884;2023-02-01T03:16:09;1.70;99.90
74822;DHT22;63353;48.702;8.884;2023-02-01T03:22:07;1.70;99.90
74822;DHT22;63353;48.702;8.884;2023-02-01T03:24:54;1.70;99.90
74822;DHT22;63353;48.702;8.884;2023-02-01T03:30:25;1.80;99.90
74822;DHT22;63353;48.702;8.884;2023-02-01T03:32:58;1.70;99.90
74822;DHT22;63353;48.702;8.884;2023-02-01T03:40:55;1.90;99.90
74822;DHT22;63353;48.702;8.884;2023-02-01T03:43:29;2.10;99.90
74822;DHT22;63353;48.702;8.884;2023-02-01T03:46:06;2.10;99.90
74822;DHT22;63353;48.702;8.884;2023-02-01T03:48:35;2.00;99.90
74822;DHT22;63353;48.702;8.884;2023-02-01T03:51:03;2.10;99.90
74822;DHT22;63353;48.702;8.884;2023-02-01T03:53:30;2.20;99.90
74822;DHT22;63353;48.702;8.884;2023-02-01T03:56:00;2.20;99.90
74822;DHT22;63353;48.702;8.884;2023-02-01T03:58:25;2.20;99.90
74822;DHT22;63353;48.702;8.884;2023-02-01T04:00:53;2.20;99.90
74822;DHT22;63353;48.702;8.884;2023-02-01T04:03:18;2.20;99.90
74822;DHT22;63353;48.702;8.884;2023-02-01T04:05:48;2.10;99.90
74822;DHT22;63353;48.702;8.884;2023-02-01T04:08:14;2.30;99.90
74822;DHT22;63353;48.702;8.884;2023-02-01T04:10:43;2.30;99.90
74822;DHT22;63353;48.702;8.884;2023-02-01T04:13:09;2.40;99.90
74822;DHT22;63353;48.702;8.884;2023-02-01T04:15:40;2.40;99.90
74822;DHT22;63353;48.702;8.884;2023-02-01T04:18:15;2.40;99.90
74822;DHT22;63353;48.702;8.884;2023-02-01T04:20:59;2.50;99.90
74822;DHT22;63353;48.702;8.884;2023-02-01T04:23:26;2.50;99.90
74822;DHT22;63353;48.702;8.884;2023-02-01T04:26:04;2.60;99.90
74822;DHT22;63353;48.702;8.884;2023-02-01T04:28:33;2.70;99.90
74822;DHT22;63353;48.702;8.884;2023-02-01T04:31:11;2.70;99.90
74822;DHT22;63353;48.702;8.884;2023-02-01T04:33:36;2.70;99.90
74822;DHT22;63353;48.702;8.884;2023-02-01T04:36:02;2.80;99.90
74822;DHT22;63353;48.702;8.884;2023-02-01T04:38:28;2.70;99.90
74822;DHT22;63353;48.702;8.884;2023-02-01T04:40:54;2.70;99.90
74822;DHT22;63353;48.702;8.884;2023-02-01T04:43:26;2.70;99.90
74822;DHT22;63353;48.702;8.884;2023-02-01T04:46:01;2.80;99.90
74822;DHT22;63353;48.702;8.884;2023-02-01T04:48:27;2.80;99.90
74822;DHT22;63353;48.702;8.884;2023-02-01T04:50:53;2.80;99.90
74822;DHT22;63353;48.702;8.884;2023-02-01T04:53:19;2.80;99.90
74822;DHT22;63353;48.702;8.884;2023-02-01T04:55:44;2.80;99.90
74822;DHT22;63353;48.702;8.884;2023-02-01T04:58:10;2.80;99.90
74822;DHT22;63353;48.702;8.884;2023-02-01T05:00:39;2.80;99.90
74822;DHT22;63353;48.702;8.884;2023-02-01T05:03:04;2.90;99.90
74822;DHT22;63353;48.702;8.884;2023-02-01T05:05:30;2.80;99.90
74822;DHT22;63353;48.702;8.884;2023-02-01T05:07:59;2.90;99.90
74822;DHT22;63353;48.702;8.884;2023-02-01T05:10:25;2.80;99.90
74822;DHT22;63353;48.702;8.884;2023-02-01T05:12:53;2.80;99.90
74822;DHT22;63353;48.702;8.884;2023-02-01T05:15:37;2.70;99.90
74822;DHT22;63353;48.702;8.884;2023-02-01T05:18:09;2.80;99.90
74822;DHT22;63353;48.702;8.884;2023-02-01T05:20:35;2.80;99.90
74822;DHT22;63353;48.702;8.884;2023-02-01T05:23:00;2.90;99.90
74822;DHT22;63353;48.702;8.884;2023-02-01T05:25:26;2.90;99.90
74822;DHT22;63353;48.702;8.884;2023-02-01T05:27:53;2.80;99.90
74822;DHT22;63353;48.702;8.884;2023-02-01T05:30:19;2.80;99.90
74822;DHT22;63353;48.702;8.884;2023-02-01T05:32:51;2.90;99.90
74822;DHT22;63353;48.702;8.884;2023-02-01T05:35:17;2.90;99.90
74822;DHT22;63353;48.702;8.884;2023-02-01T05:37:48;2.80;99.90
74822;DHT22;63353;48.702;8.884;2023-02-01T05:40:14;2.90;99.90
74822;DHT22;63353;48.702;8.884;2023-02-01T05:42:43;2.90;99.90
74822;DHT22;63353;48.702;8.884;2023-02-01T05:45:08;2.90;99.90
74822;DHT22;63353;48.702;8.884;2023-02-01T05:47:34;2.90;99.90
74822;DHT22;63353;48.702;8.884;2023-02-01T05:50:04;2.80;99.90
74822;DHT22;63353;48.702;8.884;2023-02-01T05:52:30;2.80;99.90
74822;DHT22;63353;48.702;8.884;2023-02-01T05:54:59;2.70;99.90
74822;DHT22;63353;48.702;8.884;2023-02-01T05:57:34;2.80;99.90
74822;DHT22;63353;48.702;8.884;2023-02-01T05:59:59;2.70;99.90
74822;DHT22;63353;48.702;8.884;2023-02-01T06:02:32;2.80;99.90
74822;DHT22;63353;48.702;8.884;2023-02-01T06:04:57;2.80;99.90
74822;DHT22;63353;48.702;8.884;2023-02-01T06:07:23;2.80;99.90
74822;DHT22;63353;48.702;8.884;2023-02-01T06:09:49;2.80;99.90
74822;DHT22;63353;48.702;8.884;2023-02-01T06:12:17;2.80;99.90
74822;DHT22;63353;48.702;8.884;2023-02-01T06:14:43;2.90;99.90
74822;DHT22;63353;48.702;8.884;2023-02-01T06:17:14;2.90;99.90
74822;DHT22;63353;48.702;8.884;2023-02-01T06:19:40;3.00;99.90
74822;DHT22;63353;48.702;8.884;2023-02-01T06:22:12;3.00;99.90
74822;DHT22;63353;48.702;8.884;2023-02-01T06:24:54;3.00;99.90
74822;DHT22;63353;48.702;8.884;2023-02-01T06:27:23;3.10;99.90
74822;DHT22;63353;48.702;8.884;2023-02-01T06:29:48;3.10;99.90
74822;DHT22;63353;48.702;8.884;2023-02-01T06:32:17;3.10;99.90
74822;DHT22;63353;48.702;8.884;2023-02-01T06:34:43;3.10;99.90
74822;DHT22;63353;48.702;8.884;2023-02-01T06:37:09;3.10;99.90
74822;DHT22;63353;48.702;8.884;2023-02-01T06:39:36;3.20;99.90
74822;DHT22;63353;48.702;8.884;2023-02-01T06:42:05;3.20;99.90
74822;DHT22;63353;48.702;8.884;2023-02-01T06:44:31;3.30;99.90
74822;DHT22;63353;48.702;8.884;2023-02-01T06:46:56;3.30;99.90
74822;DHT22;63353;48.702;8.884;2023-02-01T06:49:25;3.40;99.90
74822;DHT22;63353;48.702;8.884;2023-02-01T06:51:53;3.30;99.90
74822;DHT22;63353;48.702;8.884;2023-02-01T06:54:19;3.20;99.90
74822;DHT22;63353;48.702;8.884;2023-02-01T06:56:47;3.20;99.90
74822;DHT22;63353;48.702;8.884;2023-02-01T06:59:13;3.10;99.90
74822;DHT22;63353;48.702;8.884;2023-02-01T07:01:48;3.10;99.90
74822;DHT22;63353;48.702;8.884;2023-02-01T07:04:28;3.10;99.90
74822;DHT22;63353;48.702;8.884;2023-02-01T07:06:57;3.00;99.90
74822;DHT22;63353;48.702;8.884;2023-02-01T07:09:25;3.10;99.90
74822;DHT22;63353;48.702;8.884;2023-02-01T07:12:04;3.10;99.90
74822;DHT22;63353;48.702;8.884;2023-02-01T07:14:29;3.10;99.90
74822;DHT22;63353;48.702;8.884;2023-02-01T07:16:55;3.10;99.90
74822;DHT22;63353;48.702;8.884;2023-02-01T07:19:20;3.10;99.90
74822;DHT22;63353;48.702;8.884;2023-02-01T07:21:46;3.20;99.90
74822;DHT22;63353;48.702;8.884;2023-02-01T07:24:12;3.20;99.90
74822;DHT22;63353;48.702;8.884;2023-02-01T07:26:50;3.20;99.90
74822;DHT22;63353;48.702;8.884;2023-02-01T07:29:17;3.20;99.90
74822;DHT22;63353;48.702;8.884;2023-02-01T07:31:46;3.20;99.90
74822;DHT22;63353;48.702;8.884;2023-02-01T07:34:12;3.20;99.90
74822;DHT22;63353;48.702;8.884;2023-02-01T07:36:40;3.30;99.90
74822;DHT22;63353;48.702;8.884;2023-02-01T07:39:09;3.30;99.90
74822;DHT22;63353;48.702;8.884;2023-02-01T07:41:38;3.20;99.90
74822;DHT22;63353;48.702;8.884;2023-02-01T07:44:10;3.20;99.90
74822;DHT22;63353;48.702;8.884;2023-02-01T07:46:42;3.30;99.90
74822;DHT22;63353;48.702;8.884;2023-02-01T07:49:08;3.30;99.90
74822;DHT22;63353;48.702;8.884;2023-02-01T07:51:34;3.30;99.90
74822;DHT22;63353;48.702;8.884;2023-02-01T07:54:06;3.30;99.90
74822;DHT22;63353;48.702;8.884;2023-02-01T07:56:40;3.30;99.90
74822;DHT22;63353;48.702;8.884;2023-02-01T07:59:09;3.50;99.90
74822;DHT22;63353;48.702;8.884;2023-02-01T08:01:48;3.60;99.90
74822;DHT22;63353;48.702;8.884;2023-02-01T08:04:17;3.50;99.90
74822;DHT22;63353;48.702;8.884;2023-02-01T08:06:45;3.50;99.90
74822;DHT22;63353;48.702;8.884;2023-02-01T08:09:11;3.50;99.90
74822;DHT22;63353;48.702;8.884;2023-02-01T08:11:36;3.60;99.90
74822;DHT22;63353;48.702;8.884;2023-02-01T08:14:04;3.60;99.90
74822;DHT22;63353;48.702;8.884;2023-02-01T08:16:39;3.60;99.90
74822;DHT22;63353;48.702;8.884;2023-02-01T08:19:05;3.70;99.90
74822;DHT22;63353;48.702;8.884;2023-02-01T08:21:34;3.60;99.90
74822;DHT22;63353;48.702;8.884;2023-02-01T08:24:04;3.60;99.90
74822;DHT22;63353;48.702;8.884;2023-02-01T08:26:30;3.70;99.90
74822;DHT22;63353;48.702;8.884;2023-02-01T08:28:58;3.70;99.90
74822;DHT22;63353;48.702;8.884;2023-02-01T08:31:26;3.70;99.90
74822;DHT22;63353;48.702;8.884;2023-02-01T08:33:57;3.70;99.90
74822;DHT22;63353;48.702;8.884;2023-02-01T08:36:24;3.80;99.90
74822;DHT22;63353;48.702;8.884;2023-02-01T08:38:53;3.70;99.90
74822;DHT22;63353;48.702;8.884;2023-02-01T08:41:21;3.80;99.90
74822;DHT22;63353;48.702;8.884;2023-02-01T08:43:47;3.80;99.90
74822;DHT22;63353;48.702;8.884;2023-02-01T08:46:22;3.80;99.90
74822;DHT22;63353;48.702;8.884;2023-02-01T08:48:49;3.80;99.90
74822;DHT22;63353;48.702;8.884;2023-02-01T08:51:17;3.90;99.90
74822;DHT22;63353;48.702;8.884;2023-02-01T08:53:43;3.90;99.90
74822;DHT22;63353;48.702;8.884;2023-02-01T08:56:11;3.80;99.90
74822;DHT22;63353;48.702;8.884;2023-02-01T08:58:40;3.90;99.90
74822;DHT22;63353;48.702;8.884;2023-02-01T09:01:16;3.90;99.90
74822;DHT22;63353;48.702;8.884;2023-02-01T09:03:48;3.90;99.90
74822;DHT22;63353;48.702;8.884;2023-02-01T09:06:26;3.80;99.90
74822;DHT22;63353;48.702;8.884;2023-02-01T09:08:57;3.80;99.90
74822;DHT22;63353;48.702;8.884;2023-02-01T09:11:35;3.70;99.90
74822;DHT22;63353;48.702;8.884;2023-02-01T09:14:04;3.70;99.90
74822;DHT22;63353;48.702;8.884;2023-02-01T09:16:29;3.70;99.90
74822;DHT22;63353;48.702;8.884;2023-02-01T09:18:55;3.80;99.90
74822;DHT22;63353;48.702;8.884;2023-02-01T09:21:23;3.70;99.90
74822;DHT22;63353;48.702;8.884;2023-02-01T09:23:55;3.70;99.90
74822;DHT22;63353;48.702;8.884;2023-02-01T09:26:21;3.80;99.90
74822;DHT22;63353;48.702;8.884;2023-02-01T09:28:46;3.80;99.90
74822;DHT22;63353;48.702;8.884;2023-02-01T09:31:15;3.80;99.90
74822;DHT22;63353;48.702;8.884;2023-02-01T09:33:41;3.80;99.90
74822;DHT22;63353;48.702;8.884;2023-02-01T09:38:52;4.00;99.90
74822;DHT22;63353;48.702;8.884;2023-02-01T09:46:43;4.10;99.90
74822;DHT22;63353;48.702;8.884;2023-02-01T09:49:21;4.20;99.90
74822;DHT22;63353;48.702;8.884;2023-02-01T09:51:51;4.20;99.90
74822;DHT22;63353;48.702;8.884;2023-02-01T09:54:24;4.20;99.90
74822;DHT22;63353;48.702;8.884;2023-02-01T10:02:57;4.30;99.90
74822;DHT22;63353;48.702;8.884;2023-02-01T10:11:51;4.70;99.90
74822;DHT22;63353;48.702;8.884;2023-02-01T10:22:46;4.80;99.90
74822;DHT22;63353;48.702;8.884;2023-02-01T10:25:33;4.80;99.90
74822;DHT22;63353;48.702;8.884;2023-02-01T10:28:02;4.90;99.90
74822;DHT22;63353;48.702;8.884;2023-02-01T10:30:49;4.80;99.90
74822;DHT22;63353;48.702;8.884;2023-02-01T10:33:33;4.80;99.90
74822;DHT22;63353;48.702;8.884;2023-02-01T10:38:51;4.90;99.90
74822;DHT22;63353;48.702;8.884;2023-02-01T10:41:20;4.80;99.90
74822;DHT22;63353;48.702;8.884;2023-02-01T10:43:53;4.90;99.90
74822;DHT22;63353;48.702;8.884;2023-02-01T10:46:20;4.90;99.90
74822;DHT22;63353;48.702;8.884;2023-02-01T10:48:46;5.00;99.90
74822;DHT22;63353;48.702;8.884;2023-02-01T10:51:16;5.10;99.90
74822;DHT22;63353;48.702;8.884;2023-02-01T10:54:00;5.00;99.90
74822;DHT22;63353;48.702;8.884;2023-02-01T10:56:38;5.00;99.90
74822;DHT22;63353;48.702;8.884;2023-02-01T10:59:17;5.00;99.90
74822;DHT22;63353;48.702;8.884;2023-02-01T11:01:50;5.00;99.90
74822;DHT22;63353;48.702;8.884;2023-02-01T11:04:24;5.00;99.90
74822;DHT22;63353;48.702;8.884;2023-02-01T11:09:49;5.00;99.90
74822;DHT22;63353;48.702;8.884;2023-02-01T11:12:34;4.90;99.90
74822;DHT22;63353;48.702;8.884;2023-02-01T11:15:18;5.10;99.90
74822;DHT22;63353;48.702;8.884;2023-02-01T11:17:49;5.10;99.90
74822;DHT22;63353;48.702;8.884;2023-02-01T11:22:59;5.60;99.90
74822;DHT22;63353;48.702;8.884;2023-02-01T11:25:25;5.80;99.90
74822;DHT22;63353;48.702;8.884;2023-02-01T11:27:55;5.90;99.90
74822;DHT22;63353;48.702;8.884;2023-02-01T11:30:43;5.80;99.90
74822;DHT22;63353;48.702;8.884;2023-02-01T11:33:17;5.70;99.90
74822;DHT22;63353;48.702;8.884;2023-02-01T11:35:48;5.50;99.90
74822;DHT22;63353;48.702;8.884;2023-02-01T11:38:38;5.50;99.90
74822;DHT22;63353;48.702;8.884;2023-02-01T11:41:27;5.60;99.90
74822;DHT22;63353;48.702;8.884;2023-02-01T11:44:00;5.40;99.90
74822;DHT22;63353;48.702;8.884;2023-02-01T11:46:31;5.10;99.90
74822;DHT22;63353;48.702;8.884;2023-02-01T11:49:26;4.90;99.90
74822;DHT22;63353;48.702;8.884;2023-02-01T11:55:20;5.00;99.90
74822;DHT22;63353;48.702;8.884;2023-02-01T11:58:04;5.10;99.90
74822;DHT22;63353;48.702;8.884;2023-02-01T12:23:54;4.70;99.90
74822;DHT22;63353;48.702;8.884;2023-02-01T12:46:03;4.40;99.90
74822;DHT22;63353;48.702;8.884;2023-02-01T12:48:36;4.40;99.90
74822;DHT22;63353;48.702;8.884;2023-02-01T12:51:12;4.40;99.90
74822;DHT22;63353;48.702;8.884;2023-02-01T12:53:55;4.30;99.90
74822;DHT22;63353;48.702;8.884;2023-02-01T12:59:01;4.30;99.90
74822;DHT22;63353;48.702;8.884;2023-02-01T13:12:04;4.20;99.90
74822;DHT22;63353;48.702;8.884;2023-02-01T13:14:44;4.30;99.90
74822;DHT22;63353;48.702;8.884;2023-02-01T13:17:27;4.30;99.90
74822;DHT22;63353;48.702;8.884;2023-02-01T13:20:21;4.30;99.90
74822;DHT22;63353;48.702;8.884;2023-02-01T13:22:54;4.30;99.90
74822;DHT22;63353;48.702;8.884;2023-02-01T13:25:34;4.20;99.90
74822;DHT22;63353;48.702;8.884;2023-02-01T13:28:18;4.20;99.90
74822;DHT22;63353;48.702;8.884;2023-02-01T13:42:29;4.10;99.90
74822;DHT22;63353;48.702;8.884;2023-02-01T13:45:37;4.30;99.90
74822;DHT22;63353;48.702;8.884;2023-02-01T13:48:04;4.20;99.90
74822;DHT22;63353;48.702;8.884;2023-02-01T13:50:36;4.20;99.90
74822;DHT22;63353;48.702;8.884;2023-02-01T13:53:32;4.10;99.90
74822;DHT22;63353;48.702;8.884;2023-02-01T13:56:04;4.10;99.90
74822;DHT22;63353;48.702;8.884;2023-02-01T13:58:35;4.20;99.90
74822;DHT22;63353;48.702;8.884;2023-02-01T14:03:58;4.30;99.90
74822;DHT22;63353;48.702;8.884;2023-02-01T14:09:31;4.30;99.90
74822;DHT22;63353;48.702;8.884;2023-02-01T14:15:25;4.30;99.90
74822;DHT22;63353;48.702;8.884;2023-02-01T14:17:54;4.40;99.90
74822;DHT22;63353;48.702;8.884;2023-02-01T14:23:12;4.40;99.90
74822;DHT22;63353;48.702;8.884;2023-02-01T14:25:39;4.40;99.90
74822;DHT22;63353;48.702;8.884;2023-02-01T14:28:27;4.40;99.90
74822;DHT22;63353;48.702;8.884;2023-02-01T14:30:54;4.30;99.90
74822;DHT22;63353;48.702;8.884;2023-02-01T14:33:27;4.20;99.90
74822;DHT22;63353;48.702;8.884;2023-02-01T14:36:06;4.30;99.90
74822;DHT22;63353;48.702;8.884;2023-02-01T14:38:34;4.30;99.90
74822;DHT22;63353;48.702;8.884;2023-02-01T14:41:26;4.30;99.90
74822;DHT22;63353;48.702;8.884;2023-02-01T14:49:52;4.20;99.90
74822;DHT22;63353;48.702;8.884;2023-02-01T14:52:20;4.20;99.90
74822;DHT22;63353;48.702;8.884;2023-02-01T14:54:55;4.20;99.90
74822;DHT22;63353;48.702;8.884;2023-02-01T14:57:25;4.20;99.90
74822;DHT22;63353;48.702;8.884;2023-02-01T15:00:05;4.30;99.90
74822;DHT22;63353;48.702;8.884;2023-02-01T15:02:33;4.30;99.90
74822;DHT22;63353;48.702;8.884;2023-02-01T15:05:25;4.30;99.90
74822;DHT22;63353;48.702;8.884;2023-02-01T15:07:51;4.30;99.90
74822;DHT22;63353;48.702;8.884;2023-02-01T15:10:18;4.30;99.90
74822;DHT22;63353;48.702;8.884;2023-02-01T15:12:45;4.30;99.90
74822;DHT22;63353;48.702;8.884;2023-02-01T15:15:22;4.30;99.90
74822;DHT22;63353;48.702;8.884;2023-02-01T15:17:57;4.30;99.90
74822;DHT22;63353;48.702;8.884;2023-02-01T15:20:28;4.30;99.90
74822;DHT22;63353;48.702;8.884;2023-02-01T15:23:05;4.40;99.90
74822;DHT22;63353;48.702;8.884;2023-02-01T15:25:32;4.50;99.90
74822;DHT22;63353;48.702;8.884;2023-02-01T15:28:03;4.50;99.90
74822;DHT22;63353;48.702;8.884;2023-02-01T15:30:31;4.40;99.90
74822;DHT22;63353;48.702;8.884;2023-02-01T15:33:06;4.40;99.90
74822;DHT22;63353;48.702;8.884;2023-02-01T15:35:41;4.40;99.90
74822;DHT22;63353;48.702;8.884;2023-02-01T15:44:01;4.30;99.90
74822;DHT22;63353;48.702;8.884;2023-02-01T15:46:40;4.20;99.90
74822;DHT22;63353;48.702;8.884;2023-02-01T15:49:37;4.20;99.90
74822;DHT22;63353;48.702;8.884;2023-02-01T15:54:48;4.20;99.90
74822;DHT22;63353;48.702;8.884;2023-02-01T15:57:28;4.20;99.90
74822;DHT22;63353;48.702;8.884;2023-02-01T15:59:58;4.10;99.90
74822;DHT22;63353;48.702;8.884;2023-02-01T16:05:00;4.10;99.90
74822;DHT22;63353;48.702;8.884;2023-02-01T16:07:29;4.00;99.90
74822;DHT22;63353;48.702;8.884;2023-02-01T16:09:57;4.10;99.90
74822;DHT22;63353;48.702;8.884;2023-02-01T16:12:31;4.00;99.90
74822;DHT22;63353;48.702;8.884;2023-02-01T16:15:00;4.00;99.90
74822;DHT22;63353;48.702;8.884;2023-02-01T16:17:25;4.00;99.90
74822;DHT22;63353;48.702;8.884;2023-02-01T16:19:51;4.00;99.90
74822;DHT22;63353;48.702;8.884;2023-02-01T16:22:17;4.00;99.90
74822;DHT22;63353;48.702;8.884;2023-02-01T16:24:43;4.00;99.90
74822;DHT22;63353;48.702;8.884;2023-02-01T16:27:08;3.80;99.90
74822;DHT22;63353;48.702;8.884;2023-02-01T16:29:34;3.90;99.90
74822;DHT22;63353;48.702;8.884;2023-02-01T16:32:00;3.90;99.90
74822;DHT22;63353;48.702;8.884;2023-02-01T16:34:32;3.80;99.90
74822;DHT22;63353;48.702;8.884;2023-02-01T16:36:57;3.90;99.90
74822;DHT22;63353;48.702;8.884;2023-02-01T16:39:24;3.80;99.90
74822;DHT22;63353;48.702;8.884;2023-02-01T16:41:52;3.70;99.90
74822;DHT22;63353;48.702;8.884;2023-02-01T16:44:18;3.80;99.90
74822;DHT22;63353;48.702;8.884;2023-02-01T16:46:45;3.80;99.90
74822;DHT22;63353;48.702;8.884;2023-02-01T16:49:21;3.80;99.90
74822;DHT22;63353;48.702;8.884;2023-02-01T16:51:51;3.70;99.90
74822;DHT22;63353;48.702;8.884;2023-02-01T16:54:21;3.70;99.90
74822;DHT22;63353;48.702;8.884;2023-02-01T16:56:47;3.70;99.90
74822;DHT22;63353;48.702;8.884;2023-02-01T16:59:12;3.70;99.90
74822;DHT22;63353;48.702;8.884;2023-02-01T17:01:39;3.70;99.90
74822;DHT22;63353;48.702;8.884;2023-02-01T17:04:08;3.70;99.90
74822;DHT22;63353;48.702;8.884;2023-02-01T17:06:36;3.60;99.90
74822;DHT22;63353;48.702;8.884;2023-02-01T17:09:05;3.70;99.90
74822;DHT22;63353;48.702;8.884;2023-02-01T17:11:36;3.70;99.90
74822;DHT22;63353;48.702;8.884;2023-02-01T17:14:18;3.70;99.90
74822;DHT22;63353;48.702;8.884;2023-02-01T17:16:46;3.60;99.90
74822;DHT22;63353;48.702;8.884;2023-02-01T17:19:22;3.60;99.90
74822;DHT22;63353;48.702;8.884;2023-02-01T17:21:53;3.70;99.90
74822;DHT22;63353;48.702;8.884;2023-02-01T17:24:29;3.80;99.90
74822;DHT22;63353;48.702;8.884;2023-02-01T17:26:58;3.70;99.90
74822;DHT22;63353;48.702;8.884;2023-02-01T17:29:24;3.70;99.90
74822;DHT22;63353;48.702;8.884;2023-02-01T17:31:54;3.70;99.90
74822;DHT22;63353;48.702;8.884;2023-02-01T17:34:20;3.70;99.90
74822;DHT22;63353;48.702;8.884;2023-02-01T17:36:56;3.70;99.90
74822;DHT22;63353;48.702;8.884;2023-02-01T17:39:22;3.70;99.90
74822;DHT22;63353;48.702;8.884;2023-02-01T17:42:10;3.70;99.90
74822;DHT22;63353;48.702;8.884;2023-02-01T17:44:39;3.60;99.90
74822;DHT22;63353;48.702;8.884;2023-02-01T17:47:04;3.70;99.90
74822;DHT22;63353;48.702;8.884;2023-02-01T17:49:30;3.70;99.90
74822;DHT22;63353;48.702;8.884;2023-02-01T17:51:56;3.70;99.90
74822;DHT22;63353;48.702;8.884;2023-02-01T17:54:22;3.80;99.90
74822;DHT22;63353;48.702;8.884;2023-02-01T17:56:56;3.70;99.90
74822;DHT22;63353;48.702;8.884;2023-02-01T17:59:27;3.70;99.90
74822;DHT22;63353;48.702;8.884;2023-02-01T18:01:53;3.70;99.90
74822;DHT22;63353;48.702;8.884;2023-02-01T18:04:25;3.70;99.90
74822;DHT22;63353;48.702;8.884;2023-02-01T18:06:51;3.80;99.90
74822;DHT22;63353;48.702;8.884;2023-02-01T18:09:16;3.80;99.90
74822;DHT22;63353;48.702;8.884;2023-02-01T18:11:42;3.80;99.90
74822;DHT22;63353;48.702;8.884;2023-02-01T18:14:11;3.80;99.90
74822;DHT22;63353;48.702;8.884;2023-02-01T18:16:37;3.90;99.90
74822;DHT22;63353;48.702;8.884;2023-02-01T18:19:03;3.80;99.90
74822;DHT22;63353;48.702;8.884;2023-02-01T18:21:37;3.90;99.90
74822;DHT22;63353;48.702;8.884;2023-02-01T18:24:04;3.90;99.90
74822;DHT22;63353;48.702;8.884;2023-02-01T18:26:31;3.80;99.90
74822;DHT22;63353;48.702;8.884;2023-02-01T18:28:56;3.80;99.90
74822;DHT22;63353;48.702;8.884;2023-02-01T18:31:27;3.70;99.90
74822;DHT22;63353;48.702;8.884;2023-02-01T18:33:58;3.80;99.90
74822;DHT22;63353;48.702;8.884;2023-02-01T18:36:24;3.80;99.90
74822;DHT22;63353;48.702;8.884;2023-02-01T18:38:50;3.80;99.90
74822;DHT22;63353;48.702;8.884;2023-02-01T18:41:19;3.90;99.90
74822;DHT22;63353;48.702;8.884;2023-02-01T18:43:50;3.90;99.90
74822;DHT22;63353;48.702;8.884;2023-02-01T18:46:16;3.90;99.90
74822;DHT22;63353;48.702;8.884;2023-02-01T18:48:43;3.90;99.90
74822;DHT22;63353;48.702;8.884;2023-02-01T18:51:12;3.80;99.90
74822;DHT22;63353;48.702;8.884;2023-02-01T18:53:48;3.90;99.90
74822;DHT22;63353;48.702;8.884;2023-02-01T18:56:15;3.90;99.90
74822;DHT22;63353;48.702;8.884;2023-02-01T18:58:42;3.90;99.90
74822;DHT22;63353;48.702;8.884;2023-02-01T19:01:17;3.90;99.90
74822;DHT22;63353;48.702;8.884;2023-02-01T19:03:47;3.90;99.90
74822;DHT22;63353;48.702;8.884;2023-02-01T19:06:16;3.90;99.90
74822;DHT22;63353;48.702;8.884;2023-02-01T19:08:44;4.00;99.90
74822;DHT22;63353;48.702;8.884;2023-02-01T19:11:10;3.90;99.90